PWSweather.com
Personal Weather Stations
Station Observations
PENICUIKWS
PenicuikGB

PenicuikGB

Lat: 55.830932, Lon: -3.224533000000065

Elevation: 166

Station Type: Fine Offset

http://weather.penicuik.org

High Low Average
Temperature 46.0°F7.8°C 32.0°F0.0°C 34.8°F1.6°C
Dew Point 37.0°F2.8°C 27.7°F-2.4°C 30.4°F-0.9°C
Winds 6.1 mph 9.8 kmh Calm Calm 2.0 mph S3.2 kmh S
Wind Gusts 11.4 mph18.3 kmh -- 3.0 mph4.8 kmh
Humidity 89% 62% 84%
Pressure 29.52 in999.7 mb 29.19 in988.5 mb -
Precipitation 0.12 in3.0 mm - -
Hour Temp Dew Point Humidity Winds Wind Gusts Pressure Precip Precip Rate Daily Precip Total
12:00 AM 34.3°F1.3°C 30.3°F-0.9°C 85% 0.1 mph NW0.2 kmh NW 0.7 mph1.1 kmh 29.21 in989.2 mb 0.00 in0.0 mm 0.00 in0.0 mm 0.00 in0.0 mm
12:15 AM 34.2°F1.2°C 30.1°F-1.1°C 85% 0.2 mph SE0.3 kmh SE 1.6 mph2.6 kmh 29.21 in989.2 mb 0.00 in0.0 mm 0.00 in0.0 mm 0.00 in0.0 mm
12:30 AM 34.0°F1.1°C 30.0°F-1.1°C 85% 0.2 mph N0.3 kmh N 0.7 mph1.1 kmh 29.20 in988.8 mb 0.00 in0.0 mm 0.00 in0.0 mm 0.00 in0.0 mm
12:45 AM 33.8°F1.0°C 29.8°F-1.2°C 85% Calm Calm -- 29.19 in988.5 mb 0.00 in0.0 mm 0.00 in0.0 mm 0.00 in0.0 mm
01:00 AM 33.6°F0.9°C 29.9°F-1.2°C 86% Calm Calm -- 29.19 in988.5 mb 0.00 in0.0 mm 0.00 in0.0 mm 0.00 in0.0 mm
01:15 AM 33.4°F0.8°C 29.7°F-1.3°C 86% Calm Calm -- 29.19 in988.5 mb 0.00 in0.0 mm 0.00 in0.0 mm 0.00 in0.0 mm
01:30 AM 33.4°F0.8°C 29.7°F-1.3°C 86% 0.4 mph N0.6 kmh N 1.6 mph2.6 kmh 29.19 in988.5 mb 0.00 in0.0 mm 0.00 in0.0 mm 0.00 in0.0 mm
01:45 AM 33.4°F0.8°C 30.0°F-1.1°C 87% 0.4 mph N0.6 kmh N 1.6 mph2.6 kmh 29.19 in988.5 mb 0.00 in0.0 mm 0.00 in0.0 mm 0.00 in0.0 mm
02:00 AM 33.3°F0.7°C 29.8°F-1.2°C 87% Calm Calm -- 29.20 in988.8 mb 0.00 in0.0 mm 0.00 in0.0 mm 0.00 in0.0 mm
02:15 AM 33.3°F0.7°C 29.8°F-1.2°C 87% Calm Calm -- 29.20 in988.8 mb 0.00 in0.0 mm 0.00 in0.0 mm 0.00 in0.0 mm
02:30 AM 33.3°F0.7°C 30.1°F-1.1°C 88% Calm Calm -- 29.21 in989.2 mb 0.00 in0.0 mm 0.00 in0.0 mm 0.00 in0.0 mm
02:45 AM 33.3°F0.7°C 30.1°F-1.1°C 88% Calm Calm -- 29.21 in989.2 mb 0.00 in0.0 mm 0.00 in0.0 mm 0.00 in0.0 mm
03:00 AM 33.3°F0.7°C 30.1°F-1.1°C 88% Calm Calm -- 29.22 in989.5 mb 0.00 in0.0 mm 0.00 in0.0 mm 0.00 in0.0 mm
03:15 AM 33.3°F0.7°C 30.1°F-1.1°C 88% 1.0 mph S1.6 kmh S 2.2 mph3.5 kmh 29.23 in989.8 mb 0.00 in0.0 mm 0.00 in0.0 mm 0.00 in0.0 mm
03:30 AM 33.3°F0.7°C 30.1°F-1.1°C 88% 0.1 mph SE0.2 kmh SE 0.7 mph1.1 kmh 29.23 in989.8 mb 0.00 in0.0 mm 0.00 in0.0 mm 0.00 in0.0 mm
03:45 AM 33.3°F0.7°C 30.1°F-1.1°C 88% 0.7 mph SW1.1 kmh SW 1.6 mph2.6 kmh 29.23 in989.8 mb 0.00 in0.0 mm 0.00 in0.0 mm 0.00 in0.0 mm
04:00 AM 33.3°F0.7°C 30.4°F-0.9°C 89% 1.0 mph ENE1.6 kmh ENE 1.6 mph2.6 kmh 29.24 in990.2 mb 0.00 in0.0 mm 0.00 in0.0 mm 0.00 in0.0 mm
04:15 AM 33.8°F1.0°C 30.6°F-0.8°C 88% 1.9 mph NE3.1 kmh NE 2.2 mph3.5 kmh 29.25 in990.5 mb 0.00 in0.0 mm 0.00 in0.0 mm 0.00 in0.0 mm
04:30 AM 33.8°F1.0°C 30.6°F-0.8°C 88% 1.4 mph E2.3 kmh E 2.2 mph3.5 kmh 29.26 in990.9 mb 0.00 in0.0 mm 0.00 in0.0 mm 0.00 in0.0 mm
04:45 AM 33.6°F0.9°C 30.7°F-0.7°C 89% 1.5 mph E2.4 kmh E 2.2 mph3.5 kmh 29.27 in991.2 mb 0.00 in0.0 mm 0.00 in0.0 mm 0.00 in0.0 mm
05:00 AM 33.4°F0.8°C 30.6°F-0.8°C 89% 1.5 mph WSW2.4 kmh WSW 3.8 mph6.1 kmh 29.27 in991.2 mb 0.00 in0.0 mm 0.00 in0.0 mm 0.00 in0.0 mm
05:15 AM 33.1°F0.6°C 30.2°F-1.0°C 89% 0.7 mph SW1.1 kmh SW 2.2 mph3.5 kmh 29.28 in991.5 mb 0.00 in0.0 mm 0.00 in0.0 mm 0.00 in0.0 mm
05:45 AM 32.9°F0.5°C 30.0°F-1.1°C 89% 2.1 mph S3.4 kmh S 3.1 mph5.0 kmh 29.29 in991.9 mb 0.00 in0.0 mm 0.00 in0.0 mm 0.00 in0.0 mm
06:00 AM 33.3°F0.7°C 30.4°F-0.9°C 89% 1.7 mph SW2.7 kmh SW 3.1 mph5.0 kmh 29.30 in992.2 mb 0.00 in0.0 mm 0.00 in0.0 mm 0.00 in0.0 mm
06:15 AM 33.3°F0.7°C 30.4°F-0.9°C 89% 1.3 mph SSE2.1 kmh SSE 2.2 mph3.5 kmh 29.31 in992.6 mb 0.00 in0.0 mm 0.00 in0.0 mm 0.00 in0.0 mm
06:30 AM 33.3°F0.7°C 30.4°F-0.9°C 89% 1.8 mph NW2.9 kmh NW 3.1 mph5.0 kmh 29.32 in992.9 mb 0.00 in0.0 mm 0.00 in0.0 mm 0.00 in0.0 mm
06:45 AM 33.6°F0.9°C 30.7°F-0.7°C 89% 3.1 mph SSW5.0 kmh SSW 5.4 mph8.7 kmh 29.32 in992.9 mb 0.00 in0.0 mm 0.00 in0.0 mm 0.00 in0.0 mm
07:00 AM 33.6°F0.9°C 30.7°F-0.7°C 89% 1.0 mph W1.6 kmh W 3.1 mph5.0 kmh 29.32 in992.9 mb 0.00 in0.0 mm 0.00 in0.0 mm 0.00 in0.0 mm
07:15 AM 33.6°F0.9°C 30.7°F-0.7°C 89% 1.4 mph W2.3 kmh W 2.2 mph3.5 kmh 29.33 in993.2 mb 0.00 in0.0 mm 0.00 in0.0 mm 0.00 in0.0 mm
07:30 AM 33.6°F0.9°C 30.7°F-0.7°C 89% 1.2 mph W1.9 kmh W 1.6 mph2.6 kmh 29.34 in993.6 mb 0.00 in0.0 mm 0.00 in0.0 mm 0.00 in0.0 mm
07:45 AM 33.8°F1.0°C 30.6°F-0.8°C 88% 1.3 mph S2.1 kmh S 3.8 mph6.1 kmh 29.35 in993.9 mb 0.00 in0.0 mm 0.00 in0.0 mm 0.00 in0.0 mm
08:00 AM 33.8°F1.0°C 30.6°F-0.8°C 88% 1.1 mph WSW1.8 kmh WSW 1.6 mph2.6 kmh 29.36 in994.2 mb 0.00 in0.0 mm 0.00 in0.0 mm 0.00 in0.0 mm
08:15 AM 33.8°F1.0°C 30.6°F-0.8°C 88% 0.3 mph W0.5 kmh W 0.7 mph1.1 kmh 29.36 in994.2 mb 0.00 in0.0 mm 0.00 in0.0 mm 0.00 in0.0 mm
08:30 AM 33.8°F1.0°C 30.6°F-0.8°C 88% 1.1 mph WSW1.8 kmh WSW 2.2 mph3.5 kmh 29.36 in994.2 mb 0.00 in0.0 mm 0.00 in0.0 mm 0.00 in0.0 mm
08:45 AM 34.0°F1.1°C 30.8°F-0.7°C 88% 1.3 mph NW2.1 kmh NW 2.2 mph3.5 kmh 29.36 in994.2 mb 0.00 in0.0 mm 0.00 in0.0 mm 0.00 in0.0 mm
09:00 AM 34.2°F1.2°C 31.0°F-0.6°C 88% 1.1 mph WNW1.8 kmh WNW 1.6 mph2.6 kmh 29.37 in994.6 mb 0.00 in0.0 mm 0.00 in0.0 mm 0.00 in0.0 mm
09:15 AM 34.2°F1.2°C 31.0°F-0.6°C 88% 0.8 mph NNW1.3 kmh NNW 1.6 mph2.6 kmh 29.38 in994.9 mb 0.00 in0.0 mm 0.00 in0.0 mm 0.00 in0.0 mm
09:30 AM 34.2°F1.2°C 31.0°F-0.6°C 88% 1.3 mph SW2.1 kmh SW 3.1 mph5.0 kmh 29.37 in994.6 mb 0.00 in0.0 mm 0.00 in0.0 mm 0.00 in0.0 mm
09:45 AM 34.3°F1.3°C 31.2°F-0.4°C 88% 1.3 mph W2.1 kmh W 2.2 mph3.5 kmh 29.38 in994.9 mb 0.00 in0.0 mm 0.00 in0.0 mm 0.00 in0.0 mm
10:00 AM 36.7°F2.6°C 33.2°F0.7°C 87% 3.8 mph S6.1 kmh S 5.4 mph8.7 kmh 29.38 in994.9 mb 0.00 in0.0 mm 0.00 in0.0 mm 0.00 in0.0 mm
10:15 AM 41.2°F5.1°C 37.0°F2.8°C 85% 2.8 mph SW4.5 kmh SW 5.4 mph8.7 kmh 29.39 in995.3 mb 0.00 in0.0 mm 0.00 in0.0 mm 0.00 in0.0 mm
10:30 AM 40.8°F4.9°C 35.1°F1.7°C 80% 3.5 mph S5.6 kmh S 4.5 mph7.2 kmh 29.39 in995.3 mb 0.01 in0.3 mm 0.04 in1.0 mm 0.01 in0.3 mm
10:45 AM 42.8°F6.0°C 34.1°F1.2°C 71% 3.5 mph S5.6 kmh S 5.4 mph8.7 kmh 29.39 in995.3 mb 0.02 in0.5 mm 0.04 in1.0 mm 0.02 in0.5 mm
11:00 AM 46.0°F7.8°C 34.6°F1.4°C 64% 3.0 mph WSW4.8 kmh WSW 4.5 mph7.2 kmh 29.39 in995.3 mb 0.05 in1.3 mm 0.04 in1.0 mm 0.05 in1.3 mm
11:15 AM 44.8°F7.1°C 32.6°F0.3°C 62% 3.8 mph S6.1 kmh S 7.6 mph12.2 kmh 29.41 in995.9 mb 0.07 in1.8 mm 0.08 in2.0 mm 0.07 in1.8 mm
11:30 AM 42.1°F5.6°C 30.8°F-0.7°C 64% 6.1 mph S9.8 kmh S 8.3 mph13.4 kmh 29.40 in995.6 mb 0.07 in1.8 mm 0.00 in0.0 mm 0.08 in2.0 mm
11:45 AM 38.3°F3.5°C 30.1°F-1.1°C 72% 3.6 mph S5.8 kmh S 6.9 mph11.1 kmh 29.41 in995.9 mb 0.07 in1.8 mm 0.00 in0.0 mm 0.09 in2.3 mm
12:00 PM 37.8°F3.2°C 30.9°F-0.6°C 76% 3.9 mph S6.3 kmh S 9.2 mph14.8 kmh 29.41 in995.9 mb 0.05 in1.3 mm 0.00 in0.0 mm 0.09 in2.3 mm
12:15 PM 37.4°F3.0°C 30.9°F-0.6°C 77% 1.7 mph SSE2.7 kmh SSE 3.1 mph5.0 kmh 29.41 in995.9 mb 0.02 in0.5 mm 0.00 in0.0 mm 0.09 in2.3 mm
12:30 PM 36.5°F2.5°C 29.3°F-1.5°C 75% 4.1 mph SSW6.6 kmh SSW 6.0 mph9.7 kmh 29.41 in995.9 mb 0.02 in0.5 mm 0.00 in0.0 mm 0.11 in2.8 mm
12:45 PM 38.1°F3.4°C 33.1°F0.6°C 82% 2.8 mph NW4.5 kmh NW 3.8 mph6.1 kmh 29.41 in995.9 mb 0.01 in0.3 mm 0.00 in0.0 mm 0.11 in2.8 mm
01:00 PM 39.0°F3.9°C 34.0°F1.1°C 82% 2.9 mph SE4.7 kmh SE 5.4 mph8.7 kmh 29.41 in995.9 mb 0.02 in0.5 mm 0.01 in0.3 mm 0.12 in3.0 mm
01:15 PM 38.1°F3.4°C 32.5°F0.3°C 80% 2.3 mph S3.7 kmh S 4.5 mph7.2 kmh 29.41 in995.9 mb 0.02 in0.5 mm 0.00 in0.0 mm 0.12 in3.0 mm
01:30 PM 37.8°F3.2°C 32.5°F0.3°C 81% 3.3 mph SSE5.3 kmh SSE 4.5 mph7.2 kmh 29.41 in995.9 mb 0.01 in0.3 mm 0.00 in0.0 mm 0.12 in3.0 mm
01:45 PM 37.6°F3.1°C 32.6°F0.3°C 82% 2.6 mph S4.2 kmh S 3.8 mph6.1 kmh 29.41 in995.9 mb 0.01 in0.3 mm 0.00 in0.0 mm 0.12 in3.0 mm
02:00 PM 37.2°F2.9°C 31.0°F-0.6°C 78% 2.1 mph S3.4 kmh S 4.5 mph7.2 kmh 29.41 in995.9 mb 0.00 in0.0 mm 0.00 in0.0 mm 0.12 in3.0 mm
02:15 PM 36.9°F2.7°C 31.0°F-0.6°C 79% 1.9 mph NW3.1 kmh NW 4.5 mph7.2 kmh 29.41 in995.9 mb 0.00 in0.0 mm 0.00 in0.0 mm 0.12 in3.0 mm
02:30 PM 36.7°F2.6°C 30.8°F-0.7°C 79% 1.7 mph SE2.7 kmh SE 2.2 mph3.5 kmh 29.41 in995.9 mb 0.00 in0.0 mm 0.00 in0.0 mm 0.12 in3.0 mm
02:45 PM 37.0°F2.8°C 31.5°F-0.3°C 80% 3.5 mph NW5.6 kmh NW 6.9 mph11.1 kmh 29.42 in996.3 mb 0.00 in0.0 mm 0.00 in0.0 mm 0.12 in3.0 mm
03:00 PM 37.0°F2.8°C 31.5°F-0.3°C 80% 2.2 mph SE3.5 kmh SE 5.4 mph8.7 kmh 29.42 in996.3 mb 0.00 in0.0 mm 0.00 in0.0 mm 0.12 in3.0 mm
03:15 PM 36.1°F2.3°C 30.3°F-0.9°C 79% 4.2 mph W6.8 kmh W 11.4 mph18.3 kmh 29.42 in996.3 mb 0.00 in0.0 mm 0.00 in0.0 mm 0.12 in3.0 mm
03:30 PM 35.4°F1.9°C 30.2°F-1.0°C 81% 2.4 mph SW3.9 kmh SW 3.8 mph6.1 kmh 29.43 in996.6 mb 0.00 in0.0 mm 0.00 in0.0 mm 0.12 in3.0 mm
03:45 PM 34.9°F1.6°C 29.7°F-1.3°C 81% 1.9 mph SSW3.1 kmh SSW 3.1 mph5.0 kmh 29.44 in997.0 mb 0.00 in0.0 mm 0.00 in0.0 mm 0.12 in3.0 mm
04:00 PM 34.5°F1.4°C 29.6°F-1.3°C 82% 3.2 mph S5.1 kmh S 6.9 mph11.1 kmh 29.44 in997.0 mb 0.00 in0.0 mm 0.00 in0.0 mm 0.12 in3.0 mm
04:15 PM 34.7°F1.5°C 29.8°F-1.2°C 82% 3.1 mph S5.0 kmh S 4.5 mph7.2 kmh 29.44 in997.0 mb 0.00 in0.0 mm 0.00 in0.0 mm 0.12 in3.0 mm
04:30 PM 34.2°F1.2°C 29.3°F-1.5°C 82% 2.6 mph WSW4.2 kmh WSW 5.4 mph8.7 kmh 29.44 in997.0 mb 0.00 in0.0 mm 0.00 in0.0 mm 0.12 in3.0 mm
04:45 PM 33.8°F1.0°C 28.9°F-1.7°C 82% 1.3 mph SW2.1 kmh SW 3.1 mph5.0 kmh 29.46 in997.6 mb 0.00 in0.0 mm 0.00 in0.0 mm 0.12 in3.0 mm
05:00 PM 33.6°F0.9°C 29.0°F-1.7°C 83% 1.8 mph SW2.9 kmh SW 3.8 mph6.1 kmh 29.46 in997.6 mb 0.00 in0.0 mm 0.00 in0.0 mm 0.12 in3.0 mm
05:15 PM 33.6°F0.9°C 29.3°F-1.5°C 84% 1.8 mph W2.9 kmh W 3.8 mph6.1 kmh 29.46 in997.6 mb 0.00 in0.0 mm 0.00 in0.0 mm 0.12 in3.0 mm
05:30 PM 33.8°F1.0°C 29.2°F-1.6°C 83% 1.7 mph NW2.7 kmh NW 2.2 mph3.5 kmh 29.46 in997.6 mb 0.00 in0.0 mm 0.00 in0.0 mm 0.12 in3.0 mm
05:45 PM 34.2°F1.2°C 29.8°F-1.2°C 84% 3.9 mph S6.3 kmh S 8.3 mph13.4 kmh 29.46 in997.6 mb 0.00 in0.0 mm 0.00 in0.0 mm 0.12 in3.0 mm
06:00 PM 34.2°F1.2°C 29.6°F-1.3°C 83% 2.7 mph S4.3 kmh S 3.8 mph6.1 kmh 29.46 in997.6 mb 0.00 in0.0 mm 0.00 in0.0 mm 0.12 in3.0 mm
06:15 PM 34.0°F1.1°C 29.4°F-1.4°C 83% 2.0 mph S3.2 kmh S 3.1 mph5.0 kmh 29.46 in997.6 mb 0.00 in0.0 mm 0.00 in0.0 mm 0.12 in3.0 mm
06:30 PM 33.8°F1.0°C 29.2°F-1.6°C 83% 1.5 mph SW2.4 kmh SW 3.8 mph6.1 kmh 29.46 in997.6 mb 0.00 in0.0 mm 0.00 in0.0 mm 0.12 in3.0 mm
06:45 PM 33.6°F0.9°C 29.3°F-1.5°C 84% 1.9 mph SSE3.1 kmh SSE 3.8 mph6.1 kmh 29.47 in998.0 mb 0.00 in0.0 mm 0.00 in0.0 mm 0.12 in3.0 mm
07:00 PM 33.8°F1.0°C 29.2°F-1.6°C 83% 3.4 mph WSW5.5 kmh WSW 4.5 mph7.2 kmh 29.47 in998.0 mb 0.00 in0.0 mm 0.00 in0.0 mm 0.12 in3.0 mm
07:15 PM 33.8°F1.0°C 29.2°F-1.6°C 83% 3.4 mph S5.5 kmh S 4.5 mph7.2 kmh 29.49 in998.6 mb 0.00 in0.0 mm 0.00 in0.0 mm 0.12 in3.0 mm
07:30 PM 33.8°F1.0°C 29.2°F-1.6°C 83% 2.2 mph SW3.5 kmh SW 3.8 mph6.1 kmh 29.48 in998.3 mb 0.00 in0.0 mm 0.00 in0.0 mm 0.12 in3.0 mm
07:45 PM 33.8°F1.0°C 29.2°F-1.6°C 83% 3.7 mph SE6.0 kmh SE 6.0 mph9.7 kmh 29.49 in998.6 mb 0.00 in0.0 mm 0.00 in0.0 mm 0.12 in3.0 mm
08:00 PM 33.1°F0.6°C 28.5°F-1.9°C 83% 2.0 mph WSW3.2 kmh WSW 3.8 mph6.1 kmh 29.49 in998.6 mb 0.00 in0.0 mm 0.00 in0.0 mm 0.12 in3.0 mm
08:15 PM 32.5°F0.3°C 28.0°F-2.2°C 83% 2.2 mph SW3.5 kmh SW 3.8 mph6.1 kmh 29.49 in998.6 mb 0.00 in0.0 mm 0.00 in0.0 mm 0.12 in3.0 mm
08:30 PM 32.5°F0.3°C 28.3°F-2.1°C 84% 2.4 mph S3.9 kmh S 3.8 mph6.1 kmh 29.50 in999.0 mb 0.00 in0.0 mm 0.00 in0.0 mm 0.12 in3.0 mm
09:00 PM 32.4°F0.2°C 28.1°F-2.2°C 84% 2.1 mph W3.4 kmh W 3.8 mph6.1 kmh 29.51 in999.3 mb 0.00 in0.0 mm 0.00 in0.0 mm 0.12 in3.0 mm
09:15 PM 32.2°F0.1°C 27.9°F-2.3°C 84% 2.1 mph WSW3.4 kmh WSW 3.8 mph6.1 kmh 29.51 in999.3 mb 0.00 in0.0 mm 0.00 in0.0 mm 0.12 in3.0 mm
09:30 PM 32.0°F0.0°C 27.7°F-2.4°C 84% 1.6 mph SSE2.6 kmh SSE 3.8 mph6.1 kmh 29.50 in999.0 mb 0.00 in0.0 mm 0.00 in0.0 mm 0.12 in3.0 mm
09:45 PM 32.0°F0.0°C 28.0°F-2.2°C 85% 2.9 mph SW4.7 kmh SW 3.8 mph6.1 kmh 29.51 in999.3 mb 0.00 in0.0 mm 0.00 in0.0 mm 0.12 in3.0 mm
10:00 PM 32.2°F0.1°C 28.2°F-2.1°C 85% 2.8 mph WSW4.5 kmh WSW 4.5 mph7.2 kmh 29.51 in999.3 mb 0.00 in0.0 mm 0.00 in0.0 mm 0.12 in3.0 mm
10:30 PM 33.4°F0.8°C 29.7°F-1.3°C 86% 2.4 mph WNW3.9 kmh WNW 4.5 mph7.2 kmh 29.52 in999.7 mb 0.00 in0.0 mm 0.00 in0.0 mm 0.12 in3.0 mm
10:45 PM 33.4°F0.8°C 30.0°F-1.1°C 87% 2.6 mph SSW4.2 kmh SSW 5.4 mph8.7 kmh 29.52 in999.7 mb 0.00 in0.0 mm 0.00 in0.0 mm 0.12 in3.0 mm
11:00 PM 33.8°F1.0°C 30.1°F-1.1°C 86% 2.4 mph SW3.9 kmh SW 4.5 mph7.2 kmh 29.52 in999.7 mb 0.00 in0.0 mm 0.00 in0.0 mm 0.12 in3.0 mm
11:15 PM 33.8°F1.0°C 30.1°F-1.1°C 86% 1.6 mph S2.6 kmh S 3.8 mph6.1 kmh 29.52 in999.7 mb 0.00 in0.0 mm 0.00 in0.0 mm 0.12 in3.0 mm
11:30 PM 33.1°F0.6°C 29.6°F-1.3°C 87% 1.6 mph WNW2.6 kmh WNW 2.2 mph3.5 kmh 29.52 in999.7 mb 0.00 in0.0 mm 0.00 in0.0 mm 0.12 in3.0 mm
11:45 PM 32.7°F0.4°C 29.3°F-1.5°C 87% 1.3 mph WNW2.1 kmh WNW 2.2 mph3.5 kmh 29.52 in999.7 mb 0.00 in0.0 mm 0.00 in0.0 mm 0.12 in3.0 mm